Time;durP1;ratioP1;P1;durP2;ratioP2;P2;SDS_P1;SDS_P2;PMS_P1;PMS_P2;Temp;Humidity;BMP_temperature;BMP_pressure;BME280_temperature;BME280_humidity;BME280_pressure;Samples;Min_cycle;Max_cycle;Signal;HPM_P1;HPM_P2
2022/08/04 00:00:38;;;;;;;1999.90;999.90;;;20.50;1.00;;;;;;4917343;29;20052;-82
2022/08/04 00:03:10;;;;;;;1999.90;999.90;;;20.50;1.00;;;;;;4917510;29;20044;-81
2022/08/04 00:06:24;;;;;;;1999.90;999.90;;;20.50;1.00;;;;;;4916876;29;20080;-82
2022/08/04 00:08:57;;;;;;;1999.90;859.63;;;20.50;1.00;;;;;;4809223;29;20053;-81
2022/08/04 00:11:25;;;;;;;1999.90;999.90;;;20.50;1.00;;;;;;4904469;29;20064;-81
2022/08/04 00:14:00;;;;;;;1999.90;999.90;;;20.50;1.00;;;;;;4916825;29;20107;-81
2022/08/04 00:16:29;;;;;;;1999.90;999.90;;;20.50;1.00;;;;;;4900534;29;20056;-82
2022/08/04 00:19:03;;;;;;;1999.90;999.90;;;20.50;1.00;;;;;;4900108;29;20438;-81
2022/08/04 00:21:34;;;;;;;1999.90;999.90;;;20.50;1.00;;;;;;4900238;29;20107;-82
2022/08/04 00:24:01;;;;;;;1999.90;999.90;;;20.50;1.00;;;;;;4899823;29;20064;-81
2022/08/04 00:26:27;;;;;;;1999.90;999.90;;;20.50;1.00;;;;;;4917104;29;20051;-83
2022/08/04 00:28:54;;;;;;;1999.90;999.90;;;20.50;1.00;;;;;;4899861;29;20040;-82
2022/08/04 00:31:21;;;;;;;1999.90;999.90;;;20.40;1.00;;;;;;4885014;29;20525;-82
2022/08/04 00:33:48;;;;;;;1999.90;999.90;;;20.40;1.00;;;;;;4916373;29;20083;-82
2022/08/04 00:36:15;;;;;;;1999.90;999.90;;;20.40;1.00;;;;;;4900121;29;20044;-83
2022/08/04 00:38:42;;;;;;;1999.90;999.90;;;20.30;1.00;;;;;;4898846;29;20091;-82
2022/08/04 00:41:29;;;;;;;1999.90;999.90;;;20.20;1.00;;;;;;4899986;29;20049;-82
2022/08/04 00:44:20;;;;;;;1999.90;999.90;;;20.20;1.00;;;;;;4899421;29;20556;-82
2022/08/04 00:46:59;;;;;;;1999.90;999.90;;;20.20;1.00;;;;;;4916235;29;20166;-83
2022/08/04 00:49:57;;;;;;;1999.90;999.90;;;20.20;1.00;;;;;;4899992;29;20107;-82
2022/08/04 00:53:03;;;;;;;1999.90;999.90;;;20.10;1.00;;;;;;4916387;29;20122;-82
2022/08/04 00:56:04;;;;;;;1999.90;999.90;;;20.10;1.00;;;;;;4899641;29;20161;-82
2022/08/04 00:58:56;;;;;;;1999.90;999.90;;;20.00;1.00;;;;;;4899428;29;20064;-82
2022/08/04 01:02:19;;;;;;;1999.90;999.90;;;20.00;1.00;;;;;;4899840;29;20051;-82
2022/08/04 01:05:11;;;;;;;1999.90;999.90;;;20.00;1.00;;;;;;4809027;29;20053;-81
2022/08/04 01:08:03;;;;;;;1999.90;999.90;;;19.90;1.00;;;;;;4839253;29;20050;-81
2022/08/04 01:10:52;;;;;;;1999.90;999.90;;;19.80;1.00;;;;;;4870027;29;20068;-82
2022/08/04 01:13:44;;;;;;;1999.90;999.90;;;19.80;1.00;;;;;;4916391;29;20080;-82
2022/08/04 01:16:15;;;;;;;1999.90;999.90;;;19.80;1.00;;;;;;4899718;29;20062;-81
2022/08/04 01:19:01;;;;;;;1999.90;999.90;;;19.80;13.30;;;;;;4899249;29;20058;-81
2022/08/04 01:22:01;;;;;;;1999.90;999.90;;;19.70;14.90;;;;;;4916452;29;20063;-82
2022/08/04 01:24:45;;;;;;;1999.90;999.90;;;19.70;21.20;;;;;;4901309;29;20104;-81
2022/08/04 01:27:46;;;;;;;1999.90;999.90;;;19.70;24.80;;;;;;4903362;29;20060;-82
2022/08/04 01:30:12;;;;;;;1999.90;999.90;;;19.60;34.50;;;;;;4919992;29;20056;-82
2022/08/04 01:32:50;;;;;;;1999.90;999.90;;;19.60;42.00;;;;;;4919868;29;20052;-82
2022/08/04 01:35:33;;;;;;;1943.78;999.90;;;19.50;53.90;;;;;;4919889;29;20058;-82
2022/08/04 01:38:01;;;;;;;1999.90;999.90;;;19.50;61.10;;;;;;4901975;29;20060;-82
2022/08/04 01:40:28;;;;;;;1999.90;999.90;;;19.50;73.30;;;;;;4902697;29;20103;-82
2022/08/04 01:42:56;;;;;;;1817.88;999.90;;;19.40;86.80;;;;;;4919446;29;20048;-81
2022/08/04 01:45:24;;;;;;;1999.90;999.90;;;19.40;95.50;;;;;;4919727;29;20056;-82
2022/08/04 01:47:51;;;;;;;1999.90;999.90;;;19.40;99.90;;;;;;4919288;29;20044;-82
2022/08/04 01:50:18;;;;;;;1999.90;999.90;;;19.40;99.90;;;;;;4919616;29;20048;-82
2022/08/04 01:52:45;;;;;;;1999.90;999.90;;;19.30;99.90;;;;;;4902674;29;20048;-82
2022/08/04 01:55:13;;;;;;;1999.90;999.90;;;19.30;99.90;;;;;;4918021;29;20084;-81
2022/08/04 01:57:43;;;;;;;1999.90;999.90;;;19.30;99.90;;;;;;4918257;29;20131;-82
2022/08/04 02:00:21;;;;;;;1999.90;999.90;;;19.30;99.90;;;;;;4902428;29;20075;-81
2022/08/04 02:02:49;;;;;;;1891.30;999.90;;;19.30;99.90;;;;;;4919204;29;20044;-82
2022/08/04 02:05:17;;;;;;;1999.90;999.90;;;19.20;99.90;;;;;;4919253;29;20119;-81
2022/08/04 02:07:49;;;;;;;1999.90;999.90;;;19.20;99.90;;;;;;4902421;29;20055;-81
2022/08/04 02:10:33;;;;;;;1999.90;999.90;;;19.20;99.90;;;;;;4919114;29;20059;-81
2022/08/04 02:13:08;;;;;;;1999.90;999.90;;;19.20;99.90;;;;;;4918955;29;20059;-81
2022/08/04 02:15:57;;;;;;;1929.95;999.90;;;19.10;99.90;;;;;;4902465;29;20048;-82
2022/08/04 02:18:36;;;;;;;1956.90;999.90;;;19.10;99.90;;;;;;4902058;29;20048;-83
2022/08/04 02:21:04;;;;;;;1999.90;999.90;;;19.10;99.90;;;;;;4918744;29;20103;-81
2022/08/04 02:23:34;;;;;;;1999.90;999.90;;;19.10;99.90;;;;;;4901939;29;20482;-81
2022/08/04 02:26:04;;;;;;;1999.90;999.90;;;19.00;99.90;;;;;;4902049;29;20055;-82
2022/08/04 02:28:37;;;;;;;1998.78;999.90;;;19.00;99.90;;;;;;4901841;29;20513;-81
2022/08/04 02:31:05;;;;;;;1875.82;999.90;;;19.00;99.90;;;;;;4901870;29;20052;-81
2022/08/04 02:33:40;;;;;;;1917.82;999.90;;;19.00;99.90;;;;;;4901913;29;20422;-82
2022/08/04 02:36:12;;;;;;;1829.25;999.90;;;19.00;99.90;;;;;;4901476;29;20052;-81
2022/08/04 02:38:51;;;;;;;1688.95;999.90;;;19.00;99.90;;;;;;4917851;29;20067;-81
2022/08/04 02:41:18;;;;;;;1862.20;999.90;;;18.90;99.90;;;;;;4918848;29;20067;-81
2022/08/04 02:43:47;;;;;;;1858.22;999.90;;;18.90;99.90;;;;;;4902069;29;20505;-81
2022/08/04 02:46:16;;;;;;;1894.65;999.90;;;18.80;99.90;;;;;;4901677;29;20058;-82
2022/08/04 02:48:44;;;;;;;1727.03;999.90;;;18.80;99.90;;;;;;4918478;29;20091;-81
2022/08/04 02:51:12;;;;;;;1877.15;999.90;;;18.80;99.90;;;;;;4901619;29;20055;-81
2022/08/04 02:53:40;;;;;;;1785.18;999.90;;;18.80;99.90;;;;;;4901415;29;20048;-82
2022/08/04 02:56:06;;;;;;;;;;;18.70;99.90;;;;;;4902030;29;20051;-81
2022/08/04 02:58:35;;;;;;;1991.55;999.90;;;18.70;99.90;;;;;;4901386;29;19930;-81
2022/08/04 03:01:03;;;;;;;1868.63;999.90;;;18.70;99.90;;;;;;4918298;29;20079;-82
2022/08/04 03:03:47;;;;;;;;;;;18.60;99.90;;;;;;4918832;29;20047;-82
2022/08/04 03:06:26;;;;;;;1985.75;999.90;;;18.60;99.90;;;;;;4917081;29;19923;-82
2022/08/04 03:09:17;;;;;;;1756.28;999.90;;;18.60;99.90;;;;;;4900902;29;20052;-82
2022/08/04 03:12:09;;;;;;;1996.03;999.90;;;18.60;99.90;;;;;;4901280;29;20056;-81
2022/08/04 03:15:11;;;;;;;1999.90;999.90;;;18.60;99.90;;;;;;4901414;29;20052;-81
2022/08/04 03:17:36;;;;;;;1829.18;999.90;;;18.60;99.90;;;;;;4901169;29;20044;-81
2022/08/04 03:20:17;;;;;;;1832.38;999.90;;;18.60;99.90;;;;;;4901098;29;20121;-82
2022/08/04 03:22:49;;;;;;;1999.90;999.90;;;18.50;99.90;;;;;;4917854;29;20055;-81
2022/08/04 03:25:54;;;;;;;1999.90;999.90;;;18.60;99.90;;;;;;4900785;29;20054;-82
2022/08/04 03:29:07;;;;;;;1974.05;999.90;;;18.60;99.90;;;;;;4917932;29;20051;-82
2022/08/04 03:31:55;;;;;;;1965.63;999.90;;;18.60;99.90;;;;;;4900705;29;20107;-82
2022/08/04 03:35:08;;;;;;;1750.13;999.90;;;18.50;99.90;;;;;;4917811;29;20570;-82
2022/08/04 03:37:59;;;;;;;1674.30;999.90;;;18.50;99.90;;;;;;4834147;29;20527;-82
2022/08/04 03:40:37;;;;;;;1664.32;999.90;;;18.50;99.90;;;;;;4916291;29;20107;-82
2022/08/04 03:43:22;;;;;;;1666.57;999.90;;;18.50;99.90;;;;;;4917319;29;20513;-82
2022/08/04 03:46:26;;;;;;;1630.55;999.90;;;18.50;99.90;;;;;;4900469;29;20095;-82
2022/08/04 03:49:34;;;;;;;1713.38;999.90;;;18.50;99.90;;;;;;4887461;29;20064;-82
2022/08/04 03:55:24;;;;;;;1664.95;999.90;;;18.50;99.90;;;;;;4917267;29;20135;-81
2022/08/04 03:58:10;;;;;;;1629.20;999.90;;;18.50;99.90;;;;;;4917321;29;20056;-82
2022/08/04 04:00:54;;;;;;;1772.50;999.90;;;18.50;99.90;;;;;;4900603;29;20143;-81
2022/08/04 04:03:39;;;;;;;1713.80;999.90;;;18.50;99.90;;;;;;4917127;29;20203;-82
2022/08/04 04:06:27;;;;;;;1865.00;999.90;;;18.50;99.90;;;;;;4900236;29;20103;-82
2022/08/04 04:09:02;;;;;;;1702.95;999.90;;;18.50;99.90;;;;;;4899979;29;20065;-82
2022/08/04 04:11:46;;;;;;;1642.93;999.90;;;18.50;99.90;;;;;;4917164;29;20506;-82
2022/08/04 04:14:51;;;;;;;1739.65;999.90;;;18.50;99.90;;;;;;4900116;29;20142;-81
2022/08/04 04:17:52;;;;;;;1675.00;999.90;;;18.50;1.00;;;;;;4824730;29;20049;-82
2022/08/04 04:20:36;;;;;;;1855.22;999.90;;;18.40;1.00;;;;;;4858102;29;20053;-82
2022/08/04 04:23:59;;;;;;;1598.20;999.90;;;18.50;99.90;;;;;;4911318;29;20116;-82
2022/08/04 04:26:46;;;;;;;1799.68;999.90;;;18.50;99.90;;;;;;4825139;29;20421;-82
2022/08/04 04:29:37;;;;;;;1904.90;999.90;;;18.50;1.00;;;;;;4839715;29;20089;-82
2022/08/04 04:32:28;;;;;;;1841.00;999.90;;;18.50;1.00;;;;;;4860721;29;20060;-82
2022/08/04 04:35:10;;;;;;;1866.10;999.90;;;18.50;1.00;;;;;;4900087;29;20094;-82
2022/08/04 04:38:29;;;;;;;1932.45;999.90;;;18.50;1.00;;;;;;4916358;29;20473;-82
2022/08/04 04:41:22;;;;;;;1679.72;999.90;;;18.60;1.00;;;;;;4824996;29;20085;-82
2022/08/04 04:44:11;;;;;;;1686.70;999.90;;;18.60;1.00;;;;;;4916639;29;20051;-82
2022/08/04 04:46:49;;;;;;;1924.68;999.90;;;18.60;1.00;;;;;;4916681;29;20089;-81
2022/08/04 04:49:36;;;;;;;1999.90;999.90;;;18.60;1.00;;;;;;4915198;29;20048;-81
2022/08/04 04:52:18;;;;;;;1923.03;999.90;;;18.70;1.00;;;;;;4899329;29;20308;-82
2022/08/04 04:54:58;;;;;;;1901.95;999.90;;;18.70;1.00;;;;;;4899682;29;20056;-82
2022/08/04 04:57:28;;;;;;;1988.93;999.90;;;18.80;1.00;;;;;;4899312;29;20056;-82
2022/08/04 05:00:07;;;;;;;1917.88;999.90;;;18.80;1.00;;;;;;4899795;29;20091;-82
2022/08/04 05:02:58;;;;;;;1886.88;999.90;;;18.90;1.00;;;;;;4883525;29;20067;-81
2022/08/04 05:05:51;;;;;;;1812.25;999.90;;;18.90;1.00;;;;;;4899401;29;20059;-82
2022/08/04 05:08:34;;;;;;;1885.78;999.90;;;19.00;1.00;;;;;;4899234;29;20064;-82
2022/08/04 05:11:00;;;;;;;1832.30;999.90;;;19.00;99.90;;;;;;4899531;29;20144;-81
2022/08/04 05:13:43;;;;;;;1874.13;999.90;;;19.10;1.00;;;;;;4899323;29;20131;-82
2022/08/04 05:16:31;;;;;;;1911.57;999.90;;;19.20;1.00;;;;;;4916117;29;20131;-82
2022/08/04 05:19:24;;;;;;;1797.13;999.90;;;19.30;1.00;;;;;;4899374;29;20048;-81
2022/08/04 05:22:01;;;;;;;1710.95;999.90;;;19.40;1.00;;;;;;4883853;29;20060;-81
2022/08/04 05:24:30;;;;;;;1901.13;999.90;;;19.40;1.00;;;;;;4899114;29;20048;-81
2022/08/04 05:27:01;;;;;;;1778.10;999.90;;;19.50;99.90;;;;;;4916438;29;20044;-81
2022/08/04 05:29:33;;;;;;;1648.90;999.90;;;19.60;99.90;;;;;;4899019;29;20076;-81
2022/08/04 05:32:06;;;;;;;1915.13;999.90;;;19.70;99.90;;;;;;4899534;29;20062;-81
2022/08/04 05:34:39;;;;;;;1855.03;999.90;;;19.70;99.90;;;;;;4899470;29;20541;-81
2022/08/04 05:37:13;;;;;;;1843.78;999.90;;;19.80;99.90;;;;;;4898898;29;20063;-83
2022/08/04 05:39:57;;;;;;;1828.25;999.90;;;19.90;99.90;;;;;;4915569;29;20071;-81
2022/08/04 05:42:25;;;;;;;1771.65;999.90;;;19.90;99.90;;;;;;4915866;29;20060;-81
2022/08/04 05:44:51;;;;;;;1648.53;999.90;;;20.00;99.90;;;;;;4916155;29;20063;-82
2022/08/04 05:47:20;;;;;;;1741.30;999.90;;;20.00;99.90;;;;;;4915668;29;20059;-81
2022/08/04 05:49:46;;;;;;;1673.18;999.90;;;20.00;99.90;;;;;;4899298;29;20048;-81
2022/08/04 05:52:13;;;;;;;1865.07;999.90;;;20.10;99.90;;;;;;4898906;29;20060;-82
2022/08/04 05:54:41;;;;;;;1976.43;999.90;;;20.10;99.90;;;;;;4915859;29;20089;-81
2022/08/04 05:57:07;;;;;;;1847.68;999.90;;;20.10;99.90;;;;;;4915864;29;20123;-81
2022/08/04 05:59:37;;;;;;;1642.63;999.90;;;20.20;99.90;;;;;;4915685;29;20507;-81
2022/08/04 06:02:04;;;;;;;1726.05;999.90;;;20.30;99.90;;;;;;4916019;29;20056;-80
2022/08/04 06:04:38;;;;;;;1783.78;999.90;;;20.30;99.90;;;;;;4915312;29;20448;-81
2022/08/04 06:07:05;;;;;;;1789.22;999.90;;;20.40;99.90;;;;;;4915705;29;20051;-81
2022/08/04 06:09:31;;;;;;;1875.32;999.90;;;20.40;99.90;;;;;;4899296;29;20482;-82
2022/08/04 06:12:04;;;;;;;1452.97;999.90;;;20.40;99.90;;;;;;4918257;29;20048;-80
2022/08/04 06:14:42;;;;;;;1617.22;999.90;;;20.50;99.90;;;;;;4918905;29;20056;-81
2022/08/04 06:17:11;;;;;;;1557.43;999.90;;;20.60;99.90;;;;;;4902356;29;20048;-81
2022/08/04 06:19:40;;;;;;;1999.90;999.90;;;20.70;99.90;;;;;;4917964;29;20043;-81
2022/08/04 06:22:06;;;;;;;1999.90;999.90;;;20.90;99.90;;;;;;4902152;29;20127;-81
2022/08/04 06:24:34;;;;;;;1999.90;999.90;;;21.00;99.90;;;;;;4901999;29;20095;-81
2022/08/04 06:27:03;;;;;;;1999.90;999.90;;;21.30;99.90;;;;;;4918616;29;20048;-80
2022/08/04 06:29:40;;;;;;;1999.90;999.90;;;21.50;15.70;;;;;;4918727;29;20067;-80
2022/08/04 06:32:23;;;;;;;1999.90;999.90;;;21.90;1.00;;;;;;4918917;29;20446;-81
2022/08/04 06:34:52;;;;;;;1999.90;999.90;;;22.30;1.00;;;;;;4902233;29;20124;-82
2022/08/04 06:37:20;;;;;;;1999.90;999.90;;;22.60;1.00;;;;;;4918307;29;20108;-81
2022/08/04 06:39:47;;;;;;;1999.90;999.90;;;22.70;1.00;;;;;;4918179;29;20462;-81
2022/08/04 06:42:13;;;;;;;1999.90;999.90;;;22.90;1.00;;;;;;4901282;29;20115;-82
2022/08/04 06:44:40;;;;;;;1999.90;999.90;;;23.00;1.00;;;;;;4918496;29;20482;-81
2022/08/04 06:47:07;;;;;;;1974.03;999.90;;;23.10;1.00;;;;;;4901924;29;20091;-81
2022/08/04 06:49:34;;;;;;;1384.32;999.90;;;23.20;99.90;;;;;;4885985;29;20048;-81
2022/08/04 06:52:02;;;;;;;1707.43;999.90;;;23.40;99.90;;;;;;4918423;29;20051;-80
2022/08/04 06:54:28;;;;;;;1264.03;999.90;;;23.50;99.90;;;;;;4918028;29;20138;-81
2022/08/04 06:56:56;;;;;;;1491.63;999.90;;;23.60;99.90;;;;;;4901571;29;20055;-81
2022/08/04 06:59:25;;;;;;;1380.38;999.90;;;23.80;99.90;;;;;;4901406;29;20044;-81
2022/08/04 07:01:51;;;;;;;1289.50;999.90;;;23.90;99.90;;;;;;4918322;29;20051;-81
2022/08/04 07:04:18;;;;;;;1152.88;954.90;;;24.10;99.90;;;;;;4901283;29;20056;-81
2022/08/04 07:06:43;;;;;;;1226.47;921.70;;;24.20;99.90;;;;;;4917376;29;20080;-81
2022/08/04 07:09:09;;;;;;;1065.25;921.65;;;24.40;99.90;;;;;;4901113;29;20138;-81
2022/08/04 07:11:35;;;;;;;1044.97;894.58;;;24.70;99.90;;;;;;4900905;29;20052;-81
2022/08/04 07:14:03;;;;;;;1071.60;974.88;;;25.40;99.90;;;;;;4901495;29;20051;-81
2022/08/04 07:16:30;;;;;;;1493.00;999.90;;;26.10;99.90;;;;;;4901089;29;20135;-82
2022/08/04 07:18:56;;;;;;;1862.63;999.90;;;27.10;99.90;;;;;;4918004;29;20497;-81
2022/08/04 07:21:23;;;;;;;1729.78;999.90;;;27.40;99.90;;;;;;4916345;29;20052;-81
2022/08/04 07:23:49;;;;;;;1984.72;999.90;;;27.80;99.90;;;;;;4900504;29;20462;-81
2022/08/04 07:26:17;;;;;;;1189.18;999.90;;;28.50;99.90;;;;;;4885810;29;20059;-81
2022/08/04 07:28:44;;;;;;;1999.90;999.90;;;29.00;99.90;;;;;;4917836;29;20371;-81
2022/08/04 07:31:13;;;;;;;1999.90;999.90;;;29.60;99.00;;;;;;4917900;29;20139;-81
2022/08/04 07:33:42;;;;;;;1999.90;999.90;;;29.70;59.10;;;;;;4917470;29;20083;-82
2022/08/04 07:36:08;;;;;;;1508.45;999.90;;;30.30;64.40;;;;;;4918156;29;20059;-82
2022/08/04 07:38:33;;;;;;;1999.90;999.90;;;31.10;58.90;;;;;;4915516;29;20052;-81
2022/08/04 07:41:02;;;;;;;1144.82;999.90;;;31.50;17.10;;;;;;4917704;29;20482;-82
2022/08/04 07:43:29;;;;;;;1126.45;984.95;;;30.80;10.70;;;;;;4900584;29;20052;-82
2022/08/04 07:45:55;;;;;;;1262.45;999.90;;;30.90;12.90;;;;;;4900986;29;20048;-81
2022/08/04 07:48:23;;;;;;;1256.03;999.90;;;31.20;3.00;;;;;;4917211;29;20561;-82
2022/08/04 07:50:49;;;;;;;1043.82;942.53;;;31.70;12.50;;;;;;4916535;29;20052;-81
2022/08/04 07:53:16;;;;;;;927.72;850.35;;;32.40;1.00;;;;;;4917318;29;20056;-82
2022/08/04 07:55:45;;;;;;;1001.42;903.50;;;32.40;1.00;;;;;;4900262;29;20067;-81
2022/08/04 07:58:11;;;;;;;1095.07;977.33;;;32.10;1.00;;;;;;4917601;29;20055;-81
2022/08/04 08:00:37;;;;;;;1142.25;999.90;;;31.80;1.00;;;;;;4916714;29;20405;-82
2022/08/04 08:03:03;;;;;;;1004.53;901.92;;;31.80;1.00;;;;;;4917333;29;20134;-81
2022/08/04 08:05:29;;;;;;;989.90;886.80;;;31.60;1.00;;;;;;4916852;29;20099;-82
2022/08/04 08:07:56;;;;;;;947.88;861.38;;;31.60;1.00;;;;;;4916958;29;20048;-81
2022/08/04 08:10:23;;;;;;;1022.10;914.08;;;31.70;1.00;;;;;;4916696;29;20123;-82
2022/08/04 08:12:51;;;;;;;959.78;874.00;;;31.40;1.00;;;;;;4917061;29;20060;-81
2022/08/04 08:15:18;;;;;;;1175.03;999.90;;;31.40;1.00;;;;;;4900276;29;20052;-82
2022/08/04 08:17:44;;;;;;;1110.88;987.10;;;31.20;1.00;;;;;;4916594;29;20107;-82
2022/08/04 08:20:10;;;;;;;1102.07;980.60;;;31.10;1.00;;;;;;4916935;29;20135;-82
2022/08/04 08:22:37;;;;;;;1107.25;991.67;;;31.10;1.00;;;;;;4899665;29;20552;-81
2022/08/04 08:25:05;;;;;;;1078.97;970.35;;;30.80;1.00;;;;;;4900077;29;20052;-82
2022/08/04 08:27:31;;;;;;;1014.38;922.58;;;30.80;1.00;;;;;;4899526;29;20055;-82
2022/08/04 08:29:57;;;;;;;1032.05;936.65;;;31.40;1.00;;;;;;4916860;29;20055;-82
2022/08/04 08:32:23;;;;;;;1066.90;959.25;;;31.80;1.00;;;;;;4916398;29;20052;-82
2022/08/04 08:34:49;;;;;;;1111.53;991.50;;;32.50;1.00;;;;;;4900081;29;20056;-83
2022/08/04 08:37:33;;;;;;;1004.85;907.53;;;33.10;1.00;;;;;;4899795;29;20075;-83
2022/08/04 08:40:37;;;;;;;981.70;891.42;;;33.30;1.00;;;;;;4880957;29;20053;-82
2022/08/04 08:43:21;;;;;;;923.88;846.67;;;33.40;1.00;;;;;;4881259;29;20093;-83
2022/08/04 08:46:10;;;;;;;969.08;885.20;;;33.80;1.00;;;;;;4881035;29;20080;-83
2022/08/04 08:48:53;;;;;;;1098.50;988.03;;;33.90;1.00;;;;;;4867662;29;20064;-83
2022/08/04 08:51:33;;;;;;;1108.00;989.72;;;34.00;1.00;;;;;;4896953;29;20045;-83
2022/08/04 08:54:16;;;;;;;996.13;896.25;;;34.40;1.00;;;;;;4880738;29;20087;-83
2022/08/04 08:56:49;;;;;;;1074.00;957.22;;;34.80;1.00;;;;;;4880716;29;20059;-83
2022/08/04 08:59:41;;;;;;;1044.15;932.38;;;34.80;1.00;;;;;;4881099;29;20048;-83
2022/08/04 09:02:25;;;;;;;1193.07;997.85;;;35.30;1.00;;;;;;4897620;29;20048;-83
2022/08/04 09:05:47;;;;;;;812.78;749.85;;;34.80;1.00;;;;;;4880778;29;20493;-82
2022/08/04 09:08:41;;;;;;;1023.55;919.53;;;34.90;1.00;;;;;;4824245;29;20083;-82
2022/08/04 09:11:13;;;;;;;1086.15;969.72;;;34.40;1.00;;;;;;4839634;29;20058;-82
2022/08/04 09:13:59;;;;;;;960.85;871.45;;;34.40;1.00;;;;;;4886609;29;20071;-82
2022/08/04 09:16:41;;;;;;;1074.03;954.47;;;34.70;1.00;;;;;;4881019;29;20501;-82
2022/08/04 09:19:18;;;;;;;1256.25;991.15;;;35.20;1.00;;;;;;4897484;29;20459;-83
2022/08/04 09:21:51;;;;;;;968.60;871.67;;;35.50;1.00;;;;;;4880667;29;20056;-82
2022/08/04 09:24:24;;;;;;;956.42;861.50;;;36.10;1.00;;;;;;4880392;29;20088;-82
2022/08/04 09:27:04;;;;;;;1006.08;905.25;;;36.70;1.00;;;;;;4880612;29;20045;-82
2022/08/04 09:29:39;;;;;;;1027.30;918.15;;;36.80;1.00;;;;;;4880389;29;20608;-83
2022/08/04 09:32:22;;;;;;;1004.58;909.40;;;37.50;1.00;;;;;;4880541;29;20059;-83
2022/08/04 09:34:55;;;;;;;841.90;769.65;;;38.10;1.00;;;;;;4880446;29;20167;-83
2022/08/04 09:37:46;;;;;;;879.17;799.50;;;38.30;1.00;;;;;;4897078;29;20052;-83
2022/08/04 09:40:44;;;;;;;759.38;692.95;;;38.60;1.00;;;;;;4880645;29;20044;-82
2022/08/04 09:43:41;;;;;;;902.17;822.03;;;38.20;1.00;;;;;;4880807;29;20068;-82
2022/08/04 09:46:14;;;;;;;710.15;649.38;;;37.60;1.00;;;;;;4899417;29;20455;-83
2022/08/04 09:48:55;;;;;;;880.55;792.00;;;37.10;1.00;;;;;;4883693;29;20569;-82
2022/08/04 09:51:52;;;;;;;928.17;839.97;;;37.00;1.00;;;;;;4901246;29;20485;-82
2022/08/04 09:54:51;;;;;;;952.90;864.80;;;37.40;1.00;;;;;;4884123;29;20057;-83
2022/08/04 09:57:28;;;;;;;914.33;825.42;;;38.00;1.00;;;;;;4884057;29;20105;-83
2022/08/04 10:00:19;;;;;;;830.15;759.65;;;38.40;1.00;;;;;;4900649;29;20084;-82
2022/08/04 10:02:56;;;;;;;902.45;815.53;;;39.00;1.00;;;;;;4883648;29;20052;-82
2022/08/04 10:05:38;;;;;;;742.65;677.88;;;39.40;1.00;;;;;;4900454;29;20078;-82
2022/08/04 10:08:37;;;;;;;704.00;647.65;;;39.50;1.00;;;;;;4883817;29;20052;-82
2022/08/04 10:11:11;;;;;;;743.75;683.70;;;39.50;1.00;;;;;;4883937;29;20505;-83
2022/08/04 10:13:52;;;;;;;750.53;689.17;;;39.60;1.00;;;;;;4898863;29;20059;-83
2022/08/04 10:16:29;;;;;;;780.30;714.33;;;39.40;1.00;;;;;;4900331;29;20052;-82
2022/08/04 10:19:10;;;;;;;;;;;39.10;1.00;;;;;;4883598;29;20402;-83
2022/08/04 10:21:55;;;;;;;878.05;797.83;;;38.70;1.00;;;;;;4900027;29;19927;-83
2022/08/04 10:24:51;;;;;;;865.30;785.47;;;38.50;1.00;;;;;;4883261;29;20483;-83
2022/08/04 10:27:20;;;;;;;763.67;701.33;;;38.10;1.00;;;;;;4883570;29;20144;-83
2022/08/04 10:29:47;;;;;;;929.50;834.28;;;37.40;1.00;;;;;;4899742;29;20061;-82
2022/08/04 10:32:25;;;;;;;796.13;725.80;;;36.70;1.00;;;;;;4883520;29;20088;-83
2022/08/04 10:35:13;;;;;;;829.10;749.05;;;36.40;1.00;;;;;;4883225;29;20286;-82
2022/08/04 10:37:51;;;;;;;833.10;756.83;;;35.90;1.00;;;;;;4883548;29;20048;-83
2022/08/04 10:43:03;;;;;;;944.17;847.47;;;35.70;1.00;;;;;;4901738;29;19951;-83
2022/08/04 10:45:38;;;;;;;932.05;839.00;;;35.50;1.00;;;;;;4902074;29;20056;-83
2022/08/04 10:48:32;;;;;;;971.60;871.10;;;35.00;1.00;;;;;;4901709;29;20513;-83
2022/08/04 10:51:16;;;;;;;1045.00;930.72;;;34.50;1.00;;;;;;4863524;29;20064;-82
2022/08/04 10:53:43;;;;;;;758.00;693.15;;;34.10;1.00;;;;;;4901163;29;20131;-82
2022/08/04 10:56:36;;;;;;;849.42;772.35;;;34.10;1.00;;;;;;4901301;29;20079;-83
2022/08/04 10:59:17;;;;;;;857.80;779.40;;;34.00;1.00;;;;;;4893749;29;20095;-82
2022/08/04 11:01:50;;;;;;;763.85;700.05;;;33.90;1.00;;;;;;4901566;29;20060;-82
2022/08/04 11:04:45;;;;;;;713.47;654.60;;;34.30;1.00;;;;;;4901739;29;20055;-82
2022/08/04 11:07:12;;;;;;;814.80;748.50;;;34.50;1.00;;;;;;4901406;29;20060;-82
2022/08/04 11:09:38;;;;;;;;;;;34.50;1.00;;;;;;4901566;29;20094;-82
2022/08/04 11:12:20;;;;;;;764.88;703.35;;;34.90;1.00;;;;;;4917224;29;19927;-82
2022/08/04 11:14:58;;;;;;;894.60;815.15;;;35.60;1.00;;;;;;4901283;29;20074;-82
2022/08/04 11:17:34;;;;;;;815.38;749.58;;;35.70;1.00;;;;;;4901287;29;20147;-82
2022/08/04 11:20:14;;;;;;;1032.00;919.15;;;35.50;1.00;;;;;;4901147;29;20040;-82
2022/08/04 11:22:59;;;;;;;1153.85;948.63;;;35.30;1.00;;;;;;4900919;29;20130;-82
2022/08/04 11:25:31;;;;;;;1013.45;909.90;;;34.80;1.00;;;;;;4887909;29;20067;-82
2022/08/04 11:28:18;;;;;;;917.80;827.28;;;34.70;1.00;;;;;;4885360;29;20486;-83
2022/08/04 11:30:56;;;;;;;956.35;868.55;;;34.30;1.00;;;;;;4917713;29;20442;-83
2022/08/04 11:33:34;;;;;;;1143.72;957.40;;;33.90;1.00;;;;;;4917814;29;20052;-82
2022/08/04 11:36:33;;;;;;;989.30;888.70;;;33.70;1.00;;;;;;4900783;29;20048;-83
2022/08/04 11:39:05;;;;;;;;;;;33.40;1.00;;;;;;4915979;29;20066;-83
2022/08/04 11:41:47;;;;;;;1007.80;904.38;;;33.30;1.00;;;;;;4900653;29;19927;-82
2022/08/04 11:44:28;;;;;;;982.85;884.80;;;33.00;1.00;;;;;;4900985;29;20398;-83
2022/08/04 11:47:01;;;;;;;1200.57;965.72;;;32.90;1.00;;;;;;4917271;29;20131;-82
2022/08/04 11:49:37;;;;;;;1148.53;960.05;;;32.70;1.00;;;;;;4885296;29;20199;-83
2022/08/04 11:52:04;;;;;;;915.45;825.83;;;32.40;1.00;;;;;;4900212;29;20087;-82
2022/08/04 11:54:33;;;;;;;1027.47;913.55;;;32.20;1.00;;;;;;4917001;29;20536;-82
2022/08/04 11:56:59;;;;;;;905.70;817.65;;;31.90;1.00;;;;;;4917014;29;20048;-82
2022/08/04 11:59:27;;;;;;;777.75;714.05;;;31.80;1.00;;;;;;4900694;29;20052;-82
2022/08/04 12:02:09;;;;;;;877.40;791.60;;;31.70;1.00;;;;;;4900246;29;20134;-82
2022/08/04 12:04:53;;;;;;;707.30;649.75;;;31.60;1.00;;;;;;4900639;29;20516;-82
2022/08/04 12:07:22;;;;;;;901.88;815.40;;;31.40;1.00;;;;;;4899740;29;20090;-83
2022/08/04 12:10:08;;;;;;;852.88;770.95;;;31.20;1.00;;;;;;4900040;29;20052;-83
2022/08/04 12:12:57;;;;;;;968.92;865.38;;;30.90;1.00;;;;;;4900362;29;20044;-82
2022/08/04 12:15:26;;;;;;;;;;;30.70;1.00;;;;;;4900746;29;20052;-83
2022/08/04 12:18:07;;;;;;;863.15;784.58;;;30.40;1.00;;;;;;4884285;29;19922;-83
2022/08/04 12:20:40;;;;;;;803.08;736.25;;;30.10;1.00;;;;;;4900345;29;20056;-83
2022/08/04 12:23:20;;;;;;;962.10;872.58;;;29.90;1.00;;;;;;4899776;29;20123;-83
2022/08/04 12:25:48;;;;;;;896.45;816.30;;;29.70;1.00;;;;;;4899789;29;20501;-83
2022/08/04 12:28:27;;;;;;;1080.35;959.03;;;29.60;1.00;;;;;;4900217;29;20062;-82
2022/08/04 12:31:12;;;;;;;1008.20;916.47;;;29.40;1.00;;;;;;4899684;29;20079;-82
2022/08/04 12:34:03;;;;;;;1465.60;999.90;;;29.00;1.00;;;;;;4900041;29;20063;-83
2022/08/04 12:36:43;;;;;;;971.42;885.15;;;28.90;1.00;;;;;;4900158;29;20056;-83
2022/08/04 12:39:15;;;;;;;942.60;857.88;;;28.70;1.00;;;;;;4898913;29;20063;-82
2022/08/04 12:42:23;;;;;;;1018.67;921.28;;;28.30;1.00;;;;;;4900050;29;20496;-81
2022/08/04 12:44:53;;;;;;;1219.45;977.58;;;28.00;1.00;;;;;;4889573;29;20119;-82
2022/08/04 12:47:23;;;;;;;1999.90;895.45;;;28.00;1.00;;;;;;4899927;29;20102;-82
2022/08/04 12:49:51;;;;;;;1174.85;999.22;;;27.90;1.00;;;;;;4899390;29;20141;-83
2022/08/04 12:52:19;;;;;;;1034.85;940.30;;;27.80;1.00;;;;;;4916438;29;20044;-81
2022/08/04 12:54:50;;;;;;;1083.68;975.72;;;27.70;1.00;;;;;;4899708;29;20052;-83
2022/08/04 12:57:17;;;;;;;1036.07;939.90;;;27.80;1.00;;;;;;4899786;29;20048;-82
2022/08/04 12:59:43;;;;;;;1034.35;943.35;;;28.00;1.00;;;;;;4899539;29;20060;-82
2022/08/04 13:02:33;;;;;;;1081.13;973.13;;;28.20;1.00;;;;;;4899469;29;20123;-82
2022/08/04 13:05:04;;;;;;;1247.28;988.67;;;28.50;1.00;;;;;;4882790;29;20064;-82